sensor_id;sensor_type;location;lat;lon;timestamp;pressure;altitude;pressure_sealevel;temperature
21336;BMP180;69435;52.670;13.544;2023-07-09T00:01:50;101472.00;;;22.80
21336;BMP180;69435;52.670;13.544;2023-07-09T00:04:36;101462.00;;;22.80
21336;BMP180;69435;52.670;13.544;2023-07-09T00:07:31;101477.00;;;22.70
21336;BMP180;69435;52.670;13.544;2023-07-09T00:10:20;101452.00;;;22.70
21336;BMP180;69435;52.670;13.544;2023-07-09T00:13:07;101469.00;;;22.50
21336;BMP180;69435;52.670;13.544;2023-07-09T00:16:00;101475.00;;;22.50
21336;BMP180;69435;52.670;13.544;2023-07-09T00:18:46;101458.00;;;22.40
21336;BMP180;69435;52.670;13.544;2023-07-09T00:21:34;101473.00;;;22.30
21336;BMP180;69435;52.670;13.544;2023-07-09T00:24:22;101444.00;;;22.30
21336;BMP180;69435;52.670;13.544;2023-07-09T00:27:09;101444.00;;;22.20
21336;BMP180;69435;52.670;13.544;2023-07-09T00:29:55;101458.00;;;22.20
21336;BMP180;69435;52.670;13.544;2023-07-09T00:32:41;101422.00;;;22.10
21336;BMP180;69435;52.670;13.544;2023-07-09T00:35:29;101450.00;;;22.10
21336;BMP180;69435;52.670;13.544;2023-07-09T00:38:20;101456.00;;;22.00
21336;BMP180;69435;52.670;13.544;2023-07-09T00:41:16;101464.00;;;22.00
21336;BMP180;69435;52.670;13.544;2023-07-09T00:44:27;101456.00;;;22.00
21336;BMP180;69435;52.670;13.544;2023-07-09T00:47:26;101445.00;;;21.90
21336;BMP180;69435;52.670;13.544;2023-07-09T00:50:41;101456.00;;;21.80
21336;BMP180;69435;52.670;13.544;2023-07-09T00:53:31;101462.00;;;21.70
21336;BMP180;69435;52.670;13.544;2023-07-09T00:56:30;101445.00;;;21.70
21336;BMP180;69435;52.670;13.544;2023-07-09T00:59:22;101421.00;;;21.60
21336;BMP180;69435;52.670;13.544;2023-07-09T01:02:09;101387.00;;;21.50
21336;BMP180;69435;52.670;13.544;2023-07-09T01:04:59;101430.00;;;21.50
21336;BMP180;69435;52.670;13.544;2023-07-09T01:07:47;101427.00;;;21.40
21336;BMP180;69435;52.670;13.544;2023-07-09T01:10:34;101439.00;;;21.40
21336;BMP180;69435;52.670;13.544;2023-07-09T01:13:20;101417.00;;;21.30
21336;BMP180;69435;52.670;13.544;2023-07-09T01:16:06;101439.00;;;21.30
21336;BMP180;69435;52.670;13.544;2023-07-09T01:18:52;101411.00;;;21.30
21336;BMP180;69435;52.670;13.544;2023-07-09T01:21:38;101448.00;;;21.20
21336;BMP180;69435;52.670;13.544;2023-07-09T01:27:45;101455.00;;;21.20
21336;BMP180;69435;52.670;13.544;2023-07-09T01:30:37;101427.00;;;21.20
21336;BMP180;69435;52.670;13.544;2023-07-09T01:33:24;101423.00;;;21.10
21336;BMP180;69435;52.670;13.544;2023-07-09T01:36:17;101412.00;;;21.20
21336;BMP180;69435;52.670;13.544;2023-07-09T01:39:03;101446.00;;;21.10
21336;BMP180;69435;52.670;13.544;2023-07-09T01:41:49;101426.00;;;21.00
21336;BMP180;69435;52.670;13.544;2023-07-09T01:44:37;101436.00;;;21.00
21336;BMP180;69435;52.670;13.544;2023-07-09T01:47:24;101418.00;;;21.00
21336;BMP180;69435;52.670;13.544;2023-07-09T01:50:11;101443.00;;;21.00
21336;BMP180;69435;52.670;13.544;2023-07-09T01:52:58;101447.00;;;20.90
21336;BMP180;69435;52.670;13.544;2023-07-09T01:55:45;101443.00;;;20.90
21336;BMP180;69435;52.670;13.544;2023-07-09T01:58:31;101440.00;;;20.90
21336;BMP180;69435;52.670;13.544;2023-07-09T02:01:17;101434.00;;;20.70
21336;BMP180;69435;52.670;13.544;2023-07-09T02:04:05;101419.00;;;20.90
21336;BMP180;69435;52.670;13.544;2023-07-09T02:06:51;101311.00;;;20.90
21336;BMP180;69435;52.670;13.544;2023-07-09T02:09:37;101434.00;;;20.90
21336;BMP180;69435;52.670;13.544;2023-07-09T02:12:23;101439.00;;;20.90
21336;BMP180;69435;52.670;13.544;2023-07-09T02:15:10;101442.00;;;20.90
21336;BMP180;69435;52.670;13.544;2023-07-09T02:17:56;101404.00;;;20.80
21336;BMP180;69435;52.670;13.544;2023-07-09T02:20:46;101454.00;;;20.80
21336;BMP180;69435;52.670;13.544;2023-07-09T02:23:32;101441.00;;;20.80
21336;BMP180;69435;52.670;13.544;2023-07-09T02:26:18;101479.00;;;20.70
21336;BMP180;69435;52.670;13.544;2023-07-09T02:29:04;101427.00;;;20.70
21336;BMP180;69435;52.670;13.544;2023-07-09T02:31:52;101431.00;;;20.70
21336;BMP180;69435;52.670;13.544;2023-07-09T02:34:38;101450.00;;;20.70
21336;BMP180;69435;52.670;13.544;2023-07-09T02:37:26;101477.00;;;20.70
21336;BMP180;69435;52.670;13.544;2023-07-09T02:40:12;101429.00;;;20.70
21336;BMP180;69435;52.670;13.544;2023-07-09T02:42:59;101469.00;;;20.60
21336;BMP180;69435;52.670;13.544;2023-07-09T02:45:45;101467.00;;;20.60
21336;BMP180;69435;52.670;13.544;2023-07-09T02:48:31;101455.00;;;20.60
21336;BMP180;69435;52.670;13.544;2023-07-09T02:51:16;101435.00;;;20.60
21336;BMP180;69435;52.670;13.544;2023-07-09T02:54:04;101429.00;;;20.50
21336;BMP180;69435;52.670;13.544;2023-07-09T02:56:50;101463.00;;;20.50
21336;BMP180;69435;52.670;13.544;2023-07-09T02:59:36;101453.00;;;20.50
21336;BMP180;69435;52.670;13.544;2023-07-09T03:02:22;101479.00;;;20.50
21336;BMP180;69435;52.670;13.544;2023-07-09T03:05:08;101467.00;;;20.50
21336;BMP180;69435;52.670;13.544;2023-07-09T03:07:57;101480.00;;;20.50
21336;BMP180;69435;52.670;13.544;2023-07-09T03:10:43;101455.00;;;20.50
21336;BMP180;69435;52.670;13.544;2023-07-09T03:13:29;101417.00;;;20.50
21336;BMP180;69435;52.670;13.544;2023-07-09T03:16:16;101445.00;;;20.50
21336;BMP180;69435;52.670;13.544;2023-07-09T03:19:03;101459.00;;;20.50
21336;BMP180;69435;52.670;13.544;2023-07-09T03:21:50;101477.00;;;20.50
21336;BMP180;69435;52.670;13.544;2023-07-09T03:24:36;101454.00;;;20.50
21336;BMP180;69435;52.670;13.544;2023-07-09T03:27:22;101471.00;;;20.40
21336;BMP180;69435;52.670;13.544;2023-07-09T03:30:08;101473.00;;;20.50
21336;BMP180;69435;52.670;13.544;2023-07-09T03:32:55;101464.00;;;20.50
21336;BMP180;69435;52.670;13.544;2023-07-09T03:35:41;101489.00;;;20.50
21336;BMP180;69435;52.670;13.544;2023-07-09T03:38:27;101449.00;;;20.50
21336;BMP180;69435;52.670;13.544;2023-07-09T03:41:14;101438.00;;;20.50
21336;BMP180;69435;52.670;13.544;2023-07-09T03:44:00;101435.00;;;20.60
21336;BMP180;69435;52.670;13.544;2023-07-09T03:46:46;101482.00;;;20.50
21336;BMP180;69435;52.670;13.544;2023-07-09T03:49:33;101457.00;;;20.60
21336;BMP180;69435;52.670;13.544;2023-07-09T03:52:19;101450.00;;;20.70
21336;BMP180;69435;52.670;13.544;2023-07-09T03:55:05;101464.00;;;20.70
21336;BMP180;69435;52.670;13.544;2023-07-09T03:57:55;101477.00;;;20.70
21336;BMP180;69435;52.670;13.544;2023-07-09T04:00:41;101476.00;;;20.80
21336;BMP180;69435;52.670;13.544;2023-07-09T04:03:28;101464.00;;;20.80
21336;BMP180;69435;52.670;13.544;2023-07-09T04:06:14;101469.00;;;20.90
21336;BMP180;69435;52.670;13.544;2023-07-09T04:09:00;101444.00;;;20.90
21336;BMP180;69435;52.670;13.544;2023-07-09T04:11:46;101474.00;;;21.00
21336;BMP180;69435;52.670;13.544;2023-07-09T04:14:32;101479.00;;;21.10
21336;BMP180;69435;52.670;13.544;2023-07-09T04:17:18;101462.00;;;21.10
21336;BMP180;69435;52.670;13.544;2023-07-09T04:20:06;101494.00;;;21.20
21336;BMP180;69435;52.670;13.544;2023-07-09T04:22:53;101498.00;;;21.30
21336;BMP180;69435;52.670;13.544;2023-07-09T04:25:39;101487.00;;;21.40
21336;BMP180;69435;52.670;13.544;2023-07-09T04:28:25;101474.00;;;21.50
21336;BMP180;69435;52.670;13.544;2023-07-09T04:31:11;101503.00;;;21.50
21336;BMP180;69435;52.670;13.544;2023-07-09T04:33:57;101488.00;;;21.70
21336;BMP180;69435;52.670;13.544;2023-07-09T04:36:43;101474.00;;;21.70
21336;BMP180;69435;52.670;13.544;2023-07-09T04:39:29;101469.00;;;21.90
21336;BMP180;69435;52.670;13.544;2023-07-09T04:42:16;101483.00;;;21.90
21336;BMP180;69435;52.670;13.544;2023-07-09T04:45:04;101483.00;;;22.00
21336;BMP180;69435;52.670;13.544;2023-07-09T04:47:50;101484.00;;;22.10
21336;BMP180;69435;52.670;13.544;2023-07-09T04:50:37;101479.00;;;22.20
21336;BMP180;69435;52.670;13.544;2023-07-09T04:53:26;101466.00;;;22.30
21336;BMP180;69435;52.670;13.544;2023-07-09T04:56:12;101497.00;;;22.40
21336;BMP180;69435;52.670;13.544;2023-07-09T04:58:59;101474.00;;;22.40
21336;BMP180;69435;52.670;13.544;2023-07-09T05:01:46;101485.00;;;22.50
21336;BMP180;69435;52.670;13.544;2023-07-09T05:04:32;101470.00;;;22.60
21336;BMP180;69435;52.670;13.544;2023-07-09T05:07:19;101493.00;;;22.70
21336;BMP180;69435;52.670;13.544;2023-07-09T05:10:06;101489.00;;;22.90
21336;BMP180;69435;52.670;13.544;2023-07-09T05:12:54;101476.00;;;23.00
21336;BMP180;69435;52.670;13.544;2023-07-09T05:15:44;101486.00;;;23.10
21336;BMP180;69435;52.670;13.544;2023-07-09T05:18:30;101483.00;;;23.30
21336;BMP180;69435;52.670;13.544;2023-07-09T05:21:16;101470.00;;;23.40
21336;BMP180;69435;52.670;13.544;2023-07-09T05:24:02;101492.00;;;23.50
21336;BMP180;69435;52.670;13.544;2023-07-09T05:26:48;101457.00;;;23.70
21336;BMP180;69435;52.670;13.544;2023-07-09T05:29:34;101481.00;;;23.80
21336;BMP180;69435;52.670;13.544;2023-07-09T05:32:21;101478.00;;;23.90
21336;BMP180;69435;52.670;13.544;2023-07-09T05:35:08;101480.00;;;24.10
21336;BMP180;69435;52.670;13.544;2023-07-09T05:37:55;101500.00;;;24.20
21336;BMP180;69435;52.670;13.544;2023-07-09T05:40:43;101442.00;;;24.30
21336;BMP180;69435;52.670;13.544;2023-07-09T05:43:30;101496.00;;;24.50
21336;BMP180;69435;52.670;13.544;2023-07-09T05:46:16;101495.00;;;24.60
21336;BMP180;69435;52.670;13.544;2023-07-09T05:49:06;101475.00;;;24.80
21336;BMP180;69435;52.670;13.544;2023-07-09T05:51:52;101475.00;;;24.80
21336;BMP180;69435;52.670;13.544;2023-07-09T05:54:39;101489.00;;;25.00
21336;BMP180;69435;52.670;13.544;2023-07-09T05:57:25;101503.00;;;25.10
21336;BMP180;69435;52.670;13.544;2023-07-09T06:00:12;101494.00;;;25.20
21336;BMP180;69435;52.670;13.544;2023-07-09T06:02:58;101476.00;;;25.30
21336;BMP180;69435;52.670;13.544;2023-07-09T06:05:44;101504.00;;;25.40
21336;BMP180;69435;52.670;13.544;2023-07-09T06:08:32;101502.00;;;25.50
21336;BMP180;69435;52.670;13.544;2023-07-09T06:11:18;101501.00;;;25.60
21336;BMP180;69435;52.670;13.544;2023-07-09T06:14:04;101477.00;;;25.80
21336;BMP180;69435;52.670;13.544;2023-07-09T06:16:50;101511.00;;;25.90
21336;BMP180;69435;52.670;13.544;2023-07-09T06:19:37;101505.00;;;26.00
21336;BMP180;69435;52.670;13.544;2023-07-09T06:22:23;101496.00;;;26.20
21336;BMP180;69435;52.670;13.544;2023-07-09T06:25:09;101476.00;;;26.30
21336;BMP180;69435;52.670;13.544;2023-07-09T06:27:57;101507.00;;;26.40
21336;BMP180;69435;52.670;13.544;2023-07-09T06:30:44;101504.00;;;26.50
21336;BMP180;69435;52.670;13.544;2023-07-09T06:33:31;101492.00;;;26.60
21336;BMP180;69435;52.670;13.544;2023-07-09T06:36:19;101512.00;;;26.80
21336;BMP180;69435;52.670;13.544;2023-07-09T06:39:05;101507.00;;;26.90
21336;BMP180;69435;52.670;13.544;2023-07-09T06:41:51;101503.00;;;27.00
21336;BMP180;69435;52.670;13.544;2023-07-09T06:44:37;101492.00;;;27.10
21336;BMP180;69435;52.670;13.544;2023-07-09T06:47:23;101499.00;;;27.20
21336;BMP180;69435;52.670;13.544;2023-07-09T06:50:11;101514.00;;;27.40
21336;BMP180;69435;52.670;13.544;2023-07-09T06:52:56;101522.00;;;27.50
21336;BMP180;69435;52.670;13.544;2023-07-09T06:55:43;101524.00;;;27.60
21336;BMP180;69435;52.670;13.544;2023-07-09T06:58:32;101524.00;;;27.80
21336;BMP180;69435;52.670;13.544;2023-07-09T07:01:18;101521.00;;;27.90
21336;BMP180;69435;52.670;13.544;2023-07-09T07:04:04;101500.00;;;28.10
21336;BMP180;69435;52.670;13.544;2023-07-09T07:06:51;101520.00;;;28.20
21336;BMP180;69435;52.670;13.544;2023-07-09T07:09:37;101492.00;;;28.40
21336;BMP180;69435;52.670;13.544;2023-07-09T07:12:28;101532.00;;;28.80
21336;BMP180;69435;52.670;13.544;2023-07-09T07:15:18;101516.00;;;29.40
21336;BMP180;69435;52.670;13.544;2023-07-09T07:18:05;101520.00;;;30.30
21336;BMP180;69435;52.670;13.544;2023-07-09T07:20:52;101507.00;;;31.60
21336;BMP180;69435;52.670;13.544;2023-07-09T07:23:38;101523.00;;;33.10
21336;BMP180;69435;52.670;13.544;2023-07-09T07:26:24;101504.00;;;34.60
21336;BMP180;69435;52.670;13.544;2023-07-09T07:29:10;101494.00;;;36.20
21336;BMP180;69435;52.670;13.544;2023-07-09T07:31:56;101509.00;;;37.50
21336;BMP180;69435;52.670;13.544;2023-07-09T07:34:42;101521.00;;;38.70
21336;BMP180;69435;52.670;13.544;2023-07-09T07:37:28;101527.00;;;40.10
21336;BMP180;69435;52.670;13.544;2023-07-09T07:40:15;101526.00;;;41.30
21336;BMP180;69435;52.670;13.544;2023-07-09T07:43:01;101518.00;;;42.50
21336;BMP180;69435;52.670;13.544;2023-07-09T07:45:48;101519.00;;;43.30
21336;BMP180;69435;52.670;13.544;2023-07-09T07:48:34;101520.00;;;44.10
21336;BMP180;69435;52.670;13.544;2023-07-09T07:51:20;101526.00;;;44.70
21336;BMP180;69435;52.670;13.544;2023-07-09T07:54:08;101540.00;;;45.20
21336;BMP180;69435;52.670;13.544;2023-07-09T07:56:55;101530.00;;;45.40
21336;BMP180;69435;52.670;13.544;2023-07-09T07:59:41;101533.00;;;45.80
21336;BMP180;69435;52.670;13.544;2023-07-09T08:02:27;101532.00;;;46.10
21336;BMP180;69435;52.670;13.544;2023-07-09T08:05:15;101534.00;;;46.20
21336;BMP180;69435;52.670;13.544;2023-07-09T08:08:01;101517.00;;;46.40
21336;BMP180;69435;52.670;13.544;2023-07-09T08:10:47;101535.00;;;46.70
21336;BMP180;69435;52.670;13.544;2023-07-09T08:13:34;101537.00;;;47.00
21336;BMP180;69435;52.670;13.544;2023-07-09T08:16:21;101535.00;;;47.10
21336;BMP180;69435;52.670;13.544;2023-07-09T08:19:08;101560.00;;;47.20
21336;BMP180;69435;52.670;13.544;2023-07-09T08:21:55;101534.00;;;47.40
21336;BMP180;69435;52.670;13.544;2023-07-09T08:24:42;101541.00;;;47.60
21336;BMP180;69435;52.670;13.544;2023-07-09T08:27:28;101526.00;;;48.00
21336;BMP180;69435;52.670;13.544;2023-07-09T08:30:15;101521.00;;;48.20
21336;BMP180;69435;52.670;13.544;2023-07-09T08:33:01;101519.00;;;48.60
21336;BMP180;69435;52.670;13.544;2023-07-09T08:35:50;101523.00;;;48.80
21336;BMP180;69435;52.670;13.544;2023-07-09T08:38:37;101549.00;;;49.30
21336;BMP180;69435;52.670;13.544;2023-07-09T08:45:03;101540.00;;;50.00
21336;BMP180;69435;52.670;13.544;2023-07-09T08:48:14;101537.00;;;50.30
21336;BMP180;69435;52.670;13.544;2023-07-09T08:51:16;101524.00;;;50.20
21336;BMP180;69435;52.670;13.544;2023-07-09T08:54:03;101536.00;;;50.10
21336;BMP180;69435;52.670;13.544;2023-07-09T08:56:49;101524.00;;;50.30
21336;BMP180;69435;52.670;13.544;2023-07-09T08:59:37;101546.00;;;50.60
21336;BMP180;69435;52.670;13.544;2023-07-09T09:02:39;101542.00;;;50.70
21336;BMP180;69435;52.670;13.544;2023-07-09T09:05:32;101542.00;;;50.50
21336;BMP180;69435;52.670;13.544;2023-07-09T09:11:46;101544.00;;;50.00
21336;BMP180;69435;52.670;13.544;2023-07-09T09:14:56;101548.00;;;50.10
21336;BMP180;69435;52.670;13.544;2023-07-09T09:17:43;101555.00;;;50.10
21336;BMP180;69435;52.670;13.544;2023-07-09T09:20:29;101552.00;;;50.10
21336;BMP180;69435;52.670;13.544;2023-07-09T09:23:15;101540.00;;;50.30
21336;BMP180;69435;52.670;13.544;2023-07-09T09:26:05;101527.00;;;50.70
21336;BMP180;69435;52.670;13.544;2023-07-09T09:28:56;101537.00;;;51.10
21336;BMP180;69435;52.670;13.544;2023-07-09T09:31:53;101533.00;;;51.30
21336;BMP180;69435;52.670;13.544;2023-07-09T09:34:40;101538.00;;;51.20
21336;BMP180;69435;52.670;13.544;2023-07-09T09:37:31;101552.00;;;51.10
21336;BMP180;69435;52.670;13.544;2023-07-09T09:40:19;101543.00;;;51.00
21336;BMP180;69435;52.670;13.544;2023-07-09T09:43:17;101545.00;;;51.20
21336;BMP180;69435;52.670;13.544;2023-07-09T09:46:06;101549.00;;;51.50
21336;BMP180;69435;52.670;13.544;2023-07-09T09:49:01;101550.00;;;51.50
21336;BMP180;69435;52.670;13.544;2023-07-09T09:51:48;101544.00;;;51.30
21336;BMP180;69435;52.670;13.544;2023-07-09T09:54:34;101553.00;;;51.40
21336;BMP180;69435;52.670;13.544;2023-07-09T09:57:25;101541.00;;;51.30
21336;BMP180;69435;52.670;13.544;2023-07-09T10:00:15;101542.00;;;50.90
21336;BMP180;69435;52.670;13.544;2023-07-09T10:03:04;101521.00;;;50.70
21336;BMP180;69435;52.670;13.544;2023-07-09T10:05:59;101539.00;;;50.90
21336;BMP180;69435;52.670;13.544;2023-07-09T10:12:48;101524.00;;;50.80
21336;BMP180;69435;52.670;13.544;2023-07-09T10:16:06;101550.00;;;50.90
21336;BMP180;69435;52.670;13.544;2023-07-09T10:22:12;101543.00;;;51.10
21336;BMP180;69435;52.670;13.544;2023-07-09T10:25:43;101543.00;;;51.30
21336;BMP180;69435;52.670;13.544;2023-07-09T10:39:03;101534.00;;;51.40
21336;BMP180;69435;52.670;13.544;2023-07-09T10:41:56;101529.00;;;51.00
21336;BMP180;69435;52.670;13.544;2023-07-09T10:44:54;101532.00;;;50.80
21336;BMP180;69435;52.670;13.544;2023-07-09T10:47:48;101516.00;;;50.50
21336;BMP180;69435;52.670;13.544;2023-07-09T10:50:42;101530.00;;;50.40
21336;BMP180;69435;52.670;13.544;2023-07-09T10:53:51;101533.00;;;50.20
21336;BMP180;69435;52.670;13.544;2023-07-09T10:56:40;101512.00;;;50.10
21336;BMP180;69435;52.670;13.544;2023-07-09T10:59:34;101520.00;;;50.10
21336;BMP180;69435;52.670;13.544;2023-07-09T11:02:30;101527.00;;;50.20
21336;BMP180;69435;52.670;13.544;2023-07-09T11:05:17;101522.00;;;49.80
21336;BMP180;69435;52.670;13.544;2023-07-09T11:08:17;101519.00;;;49.50
21336;BMP180;69435;52.670;13.544;2023-07-09T11:11:34;101507.00;;;49.30
21336;BMP180;69435;52.670;13.544;2023-07-09T11:15:06;101517.00;;;48.90
21336;BMP180;69435;52.670;13.544;2023-07-09T11:17:58;101510.00;;;48.60
21336;BMP180;69435;52.670;13.544;2023-07-09T11:20:46;101506.00;;;48.40
21336;BMP180;69435;52.670;13.544;2023-07-09T11:23:47;101516.00;;;48.40
21336;BMP180;69435;52.670;13.544;2023-07-09T11:26:35;101510.00;;;48.10
21336;BMP180;69435;52.670;13.544;2023-07-09T11:29:23;101514.00;;;47.90
21336;BMP180;69435;52.670;13.544;2023-07-09T11:32:10;101483.00;;;47.90
21336;BMP180;69435;52.670;13.544;2023-07-09T11:35:08;101509.00;;;47.90
21336;BMP180;69435;52.670;13.544;2023-07-09T11:37:55;101487.00;;;47.60
21336;BMP180;69435;52.670;13.544;2023-07-09T11:40:55;101496.00;;;47.50
21336;BMP180;69435;52.670;13.544;2023-07-09T11:43:48;101480.00;;;47.10
21336;BMP180;69435;52.670;13.544;2023-07-09T11:50:04;101485.00;;;46.80
21336;BMP180;69435;52.670;13.544;2023-07-09T11:53:28;101481.00;;;46.60
21336;BMP180;69435;52.670;13.544;2023-07-09T11:56:22;101484.00;;;46.30
21336;BMP180;69435;52.670;13.544;2023-07-09T11:59:11;101468.00;;;46.10
21336;BMP180;69435;52.670;13.544;2023-07-09T12:01:57;101469.00;;;46.00
21336;BMP180;69435;52.670;13.544;2023-07-09T12:04:52;101468.00;;;46.00
21336;BMP180;69435;52.670;13.544;2023-07-09T12:07:38;101461.00;;;45.60
21336;BMP180;69435;52.670;13.544;2023-07-09T12:10:32;101477.00;;;45.60
21336;BMP180;69435;52.670;13.544;2023-07-09T12:13:18;101448.00;;;45.30
21336;BMP180;69435;52.670;13.544;2023-07-09T12:16:27;101444.00;;;45.30
21336;BMP180;69435;52.670;13.544;2023-07-09T12:19:18;101437.00;;;45.10
21336;BMP180;69435;52.670;13.544;2023-07-09T12:22:15;101406.00;;;45.00
21336;BMP180;69435;52.670;13.544;2023-07-09T12:25:20;101432.00;;;44.90
21336;BMP180;69435;52.670;13.544;2023-07-09T12:28:14;101434.00;;;44.50
21336;BMP180;69435;52.670;13.544;2023-07-09T12:31:00;101444.00;;;44.10
21336;BMP180;69435;52.670;13.544;2023-07-09T12:33:49;101440.00;;;43.80
21336;BMP180;69435;52.670;13.544;2023-07-09T12:36:36;101428.00;;;43.80
21336;BMP180;69435;52.670;13.544;2023-07-09T12:39:29;101447.00;;;43.60
21336;BMP180;69435;52.670;13.544;2023-07-09T12:42:31;101439.00;;;43.40
21336;BMP180;69435;52.670;13.544;2023-07-09T12:45:20;101430.00;;;43.10
21336;BMP180;69435;52.670;13.544;2023-07-09T12:48:08;101413.00;;;43.00
21336;BMP180;69435;52.670;13.544;2023-07-09T12:50:59;101421.00;;;42.90
21336;BMP180;69435;52.670;13.544;2023-07-09T12:53:45;101436.00;;;42.90
21336;BMP180;69435;52.670;13.544;2023-07-09T12:56:34;101414.00;;;43.00
21336;BMP180;69435;52.670;13.544;2023-07-09T12:59:37;101422.00;;;43.10
21336;BMP180;69435;52.670;13.544;2023-07-09T13:02:28;101414.00;;;43.10
21336;BMP180;69435;52.670;13.544;2023-07-09T13:05:24;101416.00;;;43.00
21336;BMP180;69435;52.670;13.544;2023-07-09T13:08:14;101390.00;;;42.80
21336;BMP180;69435;52.670;13.544;2023-07-09T13:11:01;101394.00;;;42.60
21336;BMP180;69435;52.670;13.544;2023-07-09T13:13:59;101389.00;;;42.40
21336;BMP180;69435;52.670;13.544;2023-07-09T13:16:48;101413.00;;;42.10
21336;BMP180;69435;52.670;13.544;2023-07-09T13:19:34;101417.00;;;42.00
21336;BMP180;69435;52.670;13.544;2023-07-09T13:22:20;101378.00;;;41.90
21336;BMP180;69435;52.670;13.544;2023-07-09T13:25:08;101410.00;;;41.80
21336;BMP180;69435;52.670;13.544;2023-07-09T13:27:56;101386.00;;;41.80
21336;BMP180;69435;52.670;13.544;2023-07-09T13:30:43;101409.00;;;41.80
21336;BMP180;69435;52.670;13.544;2023-07-09T13:33:30;101399.00;;;41.70
21336;BMP180;69435;52.670;13.544;2023-07-09T13:36:17;101366.00;;;41.60
21336;BMP180;69435;52.670;13.544;2023-07-09T13:39:03;101386.00;;;41.50
21336;BMP180;69435;52.670;13.544;2023-07-09T13:41:51;101401.00;;;41.30
21336;BMP180;69435;52.670;13.544;2023-07-09T13:44:41;101402.00;;;41.20
21336;BMP180;69435;52.670;13.544;2023-07-09T13:47:27;101392.00;;;41.00
21336;BMP180;69435;52.670;13.544;2023-07-09T13:50:14;101374.00;;;40.90
21336;BMP180;69435;52.670;13.544;2023-07-09T13:53:00;101386.00;;;40.90
21336;BMP180;69435;52.670;13.544;2023-07-09T13:55:46;101381.00;;;40.90
21336;BMP180;69435;52.670;13.544;2023-07-09T13:58:32;101385.00;;;40.90
21336;BMP180;69435;52.670;13.544;2023-07-09T14:01:22;101395.00;;;40.80
21336;BMP180;69435;52.670;13.544;2023-07-09T14:04:12;101400.00;;;40.70
21336;BMP180;69435;52.670;13.544;2023-07-09T14:06:58;101379.00;;;40.70
21336;BMP180;69435;52.670;13.544;2023-07-09T14:09:45;101390.00;;;40.80
21336;BMP180;69435;52.670;13.544;2023-07-09T14:12:32;101365.00;;;40.90
21336;BMP180;69435;52.670;13.544;2023-07-09T14:15:20;101365.00;;;40.90
21336;BMP180;69435;52.670;13.544;2023-07-09T14:18:17;101395.00;;;41.00
21336;BMP180;69435;52.670;13.544;2023-07-09T14:21:25;101375.00;;;40.90
21336;BMP180;69435;52.670;13.544;2023-07-09T14:24:38;101382.00;;;40.80
21336;BMP180;69435;52.670;13.544;2023-07-09T14:27:25;101370.00;;;40.40
21336;BMP180;69435;52.670;13.544;2023-07-09T14:30:18;101373.00;;;40.30
21336;BMP180;69435;52.670;13.544;2023-07-09T14:33:11;101362.00;;;40.20
21336;BMP180;69435;52.670;13.544;2023-07-09T14:35:57;101380.00;;;40.20
21336;BMP180;69435;52.670;13.544;2023-07-09T14:38:43;101360.00;;;40.10
21336;BMP180;69435;52.670;13.544;2023-07-09T14:41:29;101367.00;;;40.00
21336;BMP180;69435;52.670;13.544;2023-07-09T14:44:28;101372.00;;;40.10
21336;BMP180;69435;52.670;13.544;2023-07-09T14:47:19;101358.00;;;40.10
21336;BMP180;69435;52.670;13.544;2023-07-09T14:50:07;101358.00;;;40.10
21336;BMP180;69435;52.670;13.544;2023-07-09T14:52:53;101351.00;;;40.10
21336;BMP180;69435;52.670;13.544;2023-07-09T14:55:39;101361.00;;;40.00
21336;BMP180;69435;52.670;13.544;2023-07-09T14:58:26;101371.00;;;39.90
21336;BMP180;69435;52.670;13.544;2023-07-09T15:01:16;101339.00;;;39.70
21336;BMP180;69435;52.670;13.544;2023-07-09T15:07:08;101366.00;;;39.30
21336;BMP180;69435;52.670;13.544;2023-07-09T15:09:54;101371.00;;;39.10
21336;BMP180;69435;52.670;13.544;2023-07-09T15:12:41;101359.00;;;38.90
21336;BMP180;69435;52.670;13.544;2023-07-09T15:15:31;101369.00;;;38.80
21336;BMP180;69435;52.670;13.544;2023-07-09T15:18:17;101346.00;;;38.60
21336;BMP180;69435;52.670;13.544;2023-07-09T15:21:04;101340.00;;;38.50
21336;BMP180;69435;52.670;13.544;2023-07-09T15:23:50;101331.00;;;38.40
21336;BMP180;69435;52.670;13.544;2023-07-09T15:26:36;101335.00;;;38.30
21336;BMP180;69435;52.670;13.544;2023-07-09T15:29:23;101316.00;;;38.20
21336;BMP180;69435;52.670;13.544;2023-07-09T15:32:09;101337.00;;;38.10
21336;BMP180;69435;52.670;13.544;2023-07-09T15:34:55;101310.00;;;38.00
21336;BMP180;69435;52.670;13.544;2023-07-09T15:37:41;101328.00;;;37.90
21336;BMP180;69435;52.670;13.544;2023-07-09T15:40:29;101311.00;;;37.70
21336;BMP180;69435;52.670;13.544;2023-07-09T15:43:16;101314.00;;;37.70
21336;BMP180;69435;52.670;13.544;2023-07-09T15:46:03;101319.00;;;37.60
21336;BMP180;69435;52.670;13.544;2023-07-09T15:48:51;101286.00;;;37.50
21336;BMP180;69435;52.670;13.544;2023-07-09T15:51:41;101313.00;;;37.40
21336;BMP180;69435;52.670;13.544;2023-07-09T15:54:28;101300.00;;;37.30
21336;BMP180;69435;52.670;13.544;2023-07-09T15:57:15;101307.00;;;37.30
21336;BMP180;69435;52.670;13.544;2023-07-09T16:00:13;101291.00;;;37.30
21336;BMP180;69435;52.670;13.544;2023-07-09T16:03:00;101291.00;;;37.10
21336;BMP180;69435;52.670;13.544;2023-07-09T16:05:48;101286.00;;;37.00
21336;BMP180;69435;52.670;13.544;2023-07-09T16:08:34;101277.00;;;37.00
21336;BMP180;69435;52.670;13.544;2023-07-09T16:11:22;101283.00;;;36.90
21336;BMP180;69435;52.670;13.544;2023-07-09T16:14:25;101265.00;;;36.80
21336;BMP180;69435;52.670;13.544;2023-07-09T16:17:12;101253.00;;;36.70
21336;BMP180;69435;52.670;13.544;2023-07-09T16:19:58;101283.00;;;36.60
21336;BMP180;69435;52.670;13.544;2023-07-09T16:22:49;101268.00;;;36.60